Time;durP1;ratioP1;P1;durP2;ratioP2;P2;SDS_P1;SDS_P2;PMS_P1;PMS_P2;Temp;Humidity;BMP_temperature;BMP_pressure;BME280_temperature;BME280_humidity;BME280_pressure;Samples;Min_cycle;Max_cycle;Signal;HPM_P1;HPM_P2
2022/11/11 00:00:14;;;;;;;15.50;8.45;;;;;;;;;;5073346;28;20393;-74
2022/11/11 00:02:40;;;;;;;19.45;9.18;;;;;;;;;;5058427;28;20045;-73
2022/11/11 00:05:06;;;;;;;18.88;8.50;;;;;;;;;;5062984;28;20040;-74
2022/11/11 00:07:32;;;;;;;19.55;9.25;;;;;;;;;;5046498;28;20072;-74
2022/11/11 00:09:58;;;;;;;17.45;9.80;;;;;;;;;;5054778;28;20417;-74
2022/11/11 00:12:24;;;;;;;17.92;9.27;;;;;;;;;;5055465;28;20044;-75
2022/11/11 00:14:50;;;;;;;18.40;9.52;;;;;;;;;;5053148;28;20045;-75
2022/11/11 00:25:30;;;;;;;21.80;10.10;;;;;;;;;;5067292;28;20045;-75
2022/11/11 00:27:56;;;;;;;18.33;10.18;;;;;;;;;;5058793;28;20068;-75
2022/11/11 00:30:22;;;;;;;21.70;9.52;;;;;;;;;;5068727;28;20043;-76
2022/11/11 00:32:48;;;;;;;16.95;9.52;;;;;;;;;;5070198;28;20470;-74
2022/11/11 00:38:06;;;;;;;17.20;9.60;;;;;;;;;;5066396;28;20451;-75
2022/11/11 00:40:32;;;;;;;19.90;9.57;;;;;;;;;;5069551;28;20040;-75
2022/11/11 00:42:58;;;;;;;20.02;10.13;;;;;;;;;;5070783;28;20037;-75
2022/11/11 00:45:24;;;;;;;21.77;9.65;;;;;;;;;;5066440;28;20051;-75
2022/11/11 00:53:21;;;;;;;16.13;10.05;;;;;;;;;;5071574;28;20044;-76
2022/11/11 00:55:47;;;;;;;26.27;9.55;;;;;;;;;;5069036;28;20040;-76
2022/11/11 00:58:15;;;;;;;16.65;9.65;;;;;;;;;;5063875;28;20061;-76
2022/11/11 01:00:42;;;;;;;22.70;9.38;;;;;;;;;;5062744;28;20107;-76
2022/11/11 01:03:08;;;;;;;20.25;10.00;;;;;;;;;;5070634;28;20043;-76
2022/11/11 01:05:34;;;;;;;28.38;10.02;;;;;;;;;;5068313;28;20539;-76
2022/11/11 01:08:00;;;;;;;25.83;10.18;;;;;;;;;;5071200;28;20413;-76
2022/11/11 01:10:38;;;;;;;21.77;9.77;;;;;;;;;;5090916;28;20084;-76
2022/11/11 01:13:14;;;;;;;21.98;10.20;;;;;;;;;;5056394;28;20037;-76
2022/11/11 01:15:41;;;;;;;19.35;10.18;;;;;;;;;;5068552;28;20040;-76
2022/11/11 01:18:08;;;;;;;19.95;10.60;;;;;;;;;;5070721;28;20048;-75
2022/11/11 01:20:36;;;;;;;19.65;10.52;;;;;;;;;;5059265;28;20044;-74
2022/11/11 01:23:03;;;;;;;22.33;11.05;;;;;;;;;;5063418;28;20051;-74
2022/11/11 01:25:29;;;;;;;18.38;10.02;;;;;;;;;;5066251;28;20044;-74
2022/11/11 01:27:55;;;;;;;19.65;10.90;;;;;;;;;;5059646;28;20068;-75
2022/11/11 01:30:21;;;;;;;20.38;11.15;;;;;;;;;;5058608;28;20040;-75
2022/11/11 01:32:47;;;;;;;17.95;10.52;;;;;;;;;;5070756;28;20040;-75
2022/11/11 01:35:13;;;;;;;20.20;10.65;;;;;;;;;;5053512;28;20048;-74
2022/11/11 01:37:39;;;;;;;20.20;11.55;;;;;;;;;;5058820;28;20131;-74
2022/11/11 01:40:05;;;;;;;22.25;11.70;;;;;;;;;;5064776;28;20402;-74
2022/11/11 01:42:45;;;;;;;23.10;11.15;;;;;;;;;;5070360;28;20095;-74
2022/11/11 01:45:30;;;;;;;21.73;11.82;;;;;;;;;;5070042;28;20044;-74
2022/11/11 01:50:40;;;;;;;23.30;12.75;;;;;;;;;;5064354;28;20041;-73
2022/11/11 01:53:06;;;;;;;25.42;13.48;;;;;;;;;;5042158;28;20054;-75
2022/11/11 01:55:32;;;;;;;25.45;13.32;;;;;;;;;;5070132;28;20098;-74
2022/11/11 01:58:10;;;;;;;27.50;14.25;;;;;;;;;;5058888;28;20135;-74
2022/11/11 02:00:36;;;;;;;26.40;13.98;;;;;;;;;;5053884;28;20043;-76
2022/11/11 02:03:07;;;;;;;27.15;15.13;;;;;;;;;;5066097;28;20527;-74
2022/11/11 02:05:44;;;;;;;27.90;15.27;;;;;;;;;;5053481;28;20044;-74
2022/11/11 02:08:31;;;;;;;33.55;16.35;;;;;;;;;;5045261;28;20052;-74
2022/11/11 02:11:00;;;;;;;30.52;16.88;;;;;;;;;;5058804;28;20545;-74
2022/11/11 02:16:10;;;;;;;29.73;17.67;;;;;;;;;;5041913;28;20494;-76
2022/11/11 02:18:36;;;;;;;30.73;17.55;;;;;;;;;;5063668;28;20033;-76
2022/11/11 02:21:03;;;;;;;32.33;17.80;;;;;;;;;;5053235;28;20041;-75
2022/11/11 02:23:35;;;;;;;34.40;18.63;;;;;;;;;;5059070;28;20094;-76
2022/11/11 02:26:02;;;;;;;33.47;18.23;;;;;;;;;;5052972;28;20040;-76
2022/11/11 02:28:29;;;;;;;36.83;19.40;;;;;;;;;;5068506;28;20517;-74
2022/11/11 02:30:55;;;;;;;34.63;19.13;;;;;;;;;;5057050;28;20115;-76
2022/11/11 02:33:21;;;;;;;34.85;19.52;;;;;;;;;;5062944;28;20094;-75
2022/11/11 02:35:55;;;;;;;37.33;20.10;;;;;;;;;;5029131;28;20045;-75
2022/11/11 02:38:22;;;;;;;36.33;20.73;;;;;;;;;;5073211;28;20040;-75
2022/11/11 02:43:33;;;;;;;37.60;19.10;;;;;;;;;;5061285;28;20084;-77
2022/11/11 02:46:00;;;;;;;33.80;20.23;;;;;;;;;;5048107;28;20045;-75
2022/11/11 02:48:26;;;;;;;33.55;20.33;;;;;;;;;;5065539;28;20040;-74
2022/11/11 02:50:53;;;;;;;36.30;19.85;;;;;;;;;;5058993;28;20044;-75
2022/11/11 02:53:19;;;;;;;36.42;20.35;;;;;;;;;;5073059;28;20072;-75
2022/11/11 02:55:45;;;;;;;35.15;19.95;;;;;;;;;;5068811;28;20040;-76
2022/11/11 02:58:12;;;;;;;36.70;20.95;;;;;;;;;;5106459;28;20037;-76
2022/11/11 03:00:38;;;;;;;35.60;20.70;;;;;;;;;;5050611;28;20587;-75
2022/11/11 03:03:04;;;;;;;39.80;20.42;;;;;;;;;;5023518;28;20053;-76
2022/11/11 03:05:31;;;;;;;34.85;20.52;;;;;;;;;;5049690;28;20060;-76
2022/11/11 03:07:57;;;;;;;34.72;20.58;;;;;;;;;;5056238;28;20045;-76
2022/11/11 03:10:23;;;;;;;39.00;21.35;;;;;;;;;;5054130;28;20504;-76
2022/11/11 03:12:49;;;;;;;37.15;22.33;;;;;;;;;;5036420;28;20045;-75
2022/11/11 03:15:15;;;;;;;36.03;21.05;;;;;;;;;;5067674;28;20051;-76
2022/11/11 03:17:41;;;;;;;42.10;22.35;;;;;;;;;;5039871;28;20036;-76
2022/11/11 03:23:00;;;;;;;34.00;21.67;;;;;;;;;;5053609;28;20132;-76
2022/11/11 03:25:38;;;;;;;36.92;22.35;;;;;;;;;;5049482;28;20398;-76
2022/11/11 03:28:14;;;;;;;39.90;22.23;;;;;;;;;;5044531;28;20075;-75
2022/11/11 03:30:42;;;;;;;40.55;22.77;;;;;;;;;;5044658;28;20124;-74
2022/11/11 03:33:08;;;;;;;37.05;21.95;;;;;;;;;;5051803;28;20051;-74
2022/11/11 03:35:34;;;;;;;39.35;22.73;;;;;;;;;;5067030;28;20087;-74
2022/11/11 03:38:22;;;;;;;40.33;23.10;;;;;;;;;;5078842;28;20154;-75
2022/11/11 03:40:49;;;;;;;37.80;22.13;;;;;;;;;;5072777;28;20045;-75
2022/11/11 03:43:16;;;;;;;40.33;22.90;;;;;;;;;;5059693;28;20041;-76
2022/11/11 03:45:43;;;;;;;40.13;22.42;;;;;;;;;;5055561;28;20057;-76
2022/11/11 03:48:10;;;;;;;44.08;24.08;;;;;;;;;;5051120;28;20041;-74
2022/11/11 03:50:36;;;;;;;40.30;22.73;;;;;;;;;;5052397;28;20040;-75
2022/11/11 03:53:02;;;;;;;46.60;21.95;;;;;;;;;;5052039;28;20374;-75
2022/11/11 03:55:28;;;;;;;39.38;21.73;;;;;;;;;;5051499;28;20049;-75
2022/11/11 03:57:55;;;;;;;42.08;23.17;;;;;;;;;;5083624;28;20044;-75
2022/11/11 04:00:22;;;;;;;44.25;23.20;;;;;;;;;;5035145;28;20033;-75
2022/11/11 04:11:06;;;;;;;41.72;22.85;;;;;;;;;;5051748;28;20044;-75
2022/11/11 04:16:17;;;;;;;38.85;21.98;;;;;;;;;;5050825;28;20041;-75
2022/11/11 04:21:43;;;;;;;39.53;23.52;;;;;;;;;;5051182;28;20036;-76
2022/11/11 04:26:55;;;;;;;47.40;23.25;;;;;;;;;;5073685;28;20045;-75
2022/11/11 04:29:28;;;;;;;44.00;24.20;;;;;;;;;;5065418;28;20045;-75
2022/11/11 04:34:47;;;;;;;41.28;23.20;;;;;;;;;;5051204;28;20037;-74
2022/11/11 04:37:13;;;;;;;44.35;24.02;;;;;;;;;;5051253;28;20466;-74
2022/11/11 04:42:24;;;;;;;44.13;23.02;;;;;;;;;;5051024;28;20041;-75
2022/11/11 04:47:35;;;;;;;45.28;23.50;;;;;;;;;;5050799;28;20053;-75
2022/11/11 04:50:01;;;;;;;47.75;22.88;;;;;;;;;;5049793;28;20136;-75
2022/11/11 04:52:30;;;;;;;40.60;22.25;;;;;;;;;;5052345;28;20440;-75
2022/11/11 04:57:47;;;;;;;42.33;23.15;;;;;;;;;;5050774;28;20044;-77
2022/11/11 05:00:15;;;;;;;44.92;22.27;;;;;;;;;;5032346;28;20045;-76
2022/11/11 05:05:26;;;;;;;43.58;22.77;;;;;;;;;;5049942;28;20402;-73
2022/11/11 05:10:38;;;;;;;40.38;21.98;;;;;;;;;;5035791;28;20065;-75
2022/11/11 05:21:21;;;;;;;40.53;23.10;;;;;;;;;;5037417;28;20041;-75
2022/11/11 05:26:31;;;;;;;42.05;23.33;;;;;;;;;;5038775;28;20041;-75
2022/11/11 05:28:57;;;;;;;41.00;23.70;;;;;;;;;;5017112;28;20044;-74
2022/11/11 05:31:23;;;;;;;40.65;23.27;;;;;;;;;;5050067;28;20055;-74
2022/11/11 05:33:49;;;;;;;43.13;24.50;;;;;;;;;;5049651;28;20171;-75
2022/11/11 05:36:16;;;;;;;41.30;23.00;;;;;;;;;;5033704;28;20447;-75
2022/11/11 05:38:42;;;;;;;44.38;23.67;;;;;;;;;;5049994;28;20045;-75
2022/11/11 05:41:08;;;;;;;40.67;23.05;;;;;;;;;;5050541;28;20405;-75
2022/11/11 05:43:34;;;;;;;42.35;22.48;;;;;;;;;;5032696;28;20070;-75
2022/11/11 05:46:00;;;;;;;46.08;24.25;;;;;;;;;;5033737;28;20076;-74
2022/11/11 05:48:27;;;;;;;44.25;23.73;;;;;;;;;;5049828;28;20041;-75
2022/11/11 05:50:53;;;;;;;40.42;23.80;;;;;;;;;;5050681;28;20051;-74
2022/11/11 05:53:22;;;;;;;49.65;23.95;;;;;;;;;;5048422;28;20033;-74
2022/11/11 05:55:52;;;;;;;43.45;23.55;;;;;;;;;;5034884;28;20041;-74
2022/11/11 05:58:21;;;;;;;44.63;23.65;;;;;;;;;;5033602;28;20053;-74
2022/11/11 06:00:47;;;;;;;47.60;25.27;;;;;;;;;;5049640;28;20064;-74
2022/11/11 06:03:13;;;;;;;45.92;24.42;;;;;;;;;;5051277;28;20045;-74
2022/11/11 06:05:39;;;;;;;42.83;24.52;;;;;;;;;;5051727;28;20049;-75
2022/11/11 06:08:05;;;;;;;48.53;24.63;;;;;;;;;;5053811;28;20056;-75
2022/11/11 06:10:31;;;;;;;41.42;23.58;;;;;;;;;;5053883;28;20045;-75
2022/11/11 06:13:01;;;;;;;47.95;25.45;;;;;;;;;;5054456;28;20055;-74
2022/11/11 06:15:31;;;;;;;42.42;23.35;;;;;;;;;;5052700;28;20049;-76
2022/11/11 06:17:58;;;;;;;47.78;25.48;;;;;;;;;;5054062;28;20393;-75
2022/11/11 06:20:24;;;;;;;43.67;25.60;;;;;;;;;;5053735;28;20055;-75
2022/11/11 06:22:55;;;;;;;48.42;24.80;;;;;;;;;;5042591;28;20044;-75
2022/11/11 06:28:14;;;;;;;45.50;23.42;;;;;;;;;;5043529;28;20029;-75
2022/11/11 06:30:41;;;;;;;44.78;23.92;;;;;;;;;;5053116;28;20060;-76
2022/11/11 06:33:08;;;;;;;43.17;23.13;;;;;;;;;;5053654;28;20029;-76
2022/11/11 06:35:34;;;;;;;44.83;23.95;;;;;;;;;;5051664;28;20044;-75
2022/11/11 06:38:01;;;;;;;45.78;24.08;;;;;;;;;;5036707;28;20041;-75
2022/11/11 06:40:29;;;;;;;43.88;22.77;;;;;;;;;;5053787;28;20040;-75
2022/11/11 06:42:55;;;;;;;42.30;23.25;;;;;;;;;;5037334;28;20489;-75
2022/11/11 06:45:21;;;;;;;45.80;23.42;;;;;;;;;;5052914;28;20040;-74
2022/11/11 06:47:47;;;;;;;42.33;22.00;;;;;;;;;;5034210;28;20041;-74
2022/11/11 06:50:13;;;;;;;40.35;21.80;;;;;;;;;;5037265;28;20494;-74
2022/11/11 06:52:39;;;;;;;43.47;22.67;;;;;;;;;;5052691;28;20045;-75
2022/11/11 06:55:06;;;;;;;40.35;21.98;;;;;;;;;;5053105;28;20047;-75
2022/11/11 06:57:32;;;;;;;37.97;22.50;;;;;;;;;;5051256;28;20413;-75
2022/11/11 06:59:58;;;;;;;41.75;23.48;;;;;;;;;;5053214;28;20052;-75
2022/11/11 07:02:24;;;;;;;40.72;22.00;;;;;;;;;;5052926;28;20033;-75
2022/11/11 07:04:50;;;;;;;42.50;22.50;;;;;;;;;;5035997;28;20167;-75
2022/11/11 07:07:16;;;;;;;45.65;22.20;;;;;;;;;;5051181;28;20057;-75
2022/11/11 07:09:43;;;;;;;38.55;22.52;;;;;;;;;;5052679;28;20053;-75
2022/11/11 07:12:09;;;;;;;40.00;22.63;;;;;;;;;;5052849;28;20045;-76
2022/11/11 07:14:35;;;;;;;42.13;22.80;;;;;;;;;;5034154;28;20045;-75
2022/11/11 07:17:01;;;;;;;42.72;23.20;;;;;;;;;;5051481;28;20486;-75
2022/11/11 07:19:27;;;;;;;43.40;22.90;;;;;;;;;;5052637;28;20043;-75
2022/11/11 07:21:53;;;;;;;39.15;22.63;;;;;;;;;;5052770;28;20177;-75
2022/11/11 07:24:19;;;;;;;41.03;22.60;;;;;;;;;;5053706;28;20033;-75
2022/11/11 07:26:45;;;;;;;37.78;22.45;;;;;;;;;;5086134;28;20094;-75
2022/11/11 07:29:14;;;;;;;40.67;21.52;;;;;;;;;;5016902;28;20047;-73
2022/11/11 07:31:40;;;;;;;41.63;21.30;;;;;;;;;;5036240;28;20049;-76
2022/11/11 07:34:06;;;;;;;39.33;21.92;;;;;;;;;;5052358;28;20087;-76
2022/11/11 07:36:32;;;;;;;35.83;21.05;;;;;;;;;;5052881;28;20041;-76
2022/11/11 07:38:58;;;;;;;40.35;21.25;;;;;;;;;;5050419;28;20124;-77
2022/11/11 07:41:24;;;;;;;38.53;21.63;;;;;;;;;;5052578;28;20033;-77
2022/11/11 07:43:50;;;;;;;40.13;21.38;;;;;;;;;;5062924;28;20109;-77
2022/11/11 07:46:16;;;;;;;38.25;21.23;;;;;;;;;;5052867;28;20044;-74
2022/11/11 07:48:42;;;;;;;36.70;21.00;;;;;;;;;;5050188;28;20044;-74
2022/11/11 07:51:08;;;;;;;37.03;20.38;;;;;;;;;;5052161;28;20122;-74
2022/11/11 07:53:34;;;;;;;35.50;20.50;;;;;;;;;;5035843;28;20037;-74
2022/11/11 07:56:00;;;;;;;37.80;20.67;;;;;;;;;;5052730;28;20045;-74
2022/11/11 07:58:27;;;;;;;31.30;18.73;;;;;;;;;;5045361;28;20043;-75
2022/11/11 08:00:53;;;;;;;35.20;19.48;;;;;;;;;;5052245;28;20444;-74
2022/11/11 08:03:19;;;;;;;37.78;19.98;;;;;;;;;;5052156;28;20039;-77
2022/11/11 08:05:45;;;;;;;33.65;19.15;;;;;;;;;;5035427;28;20102;-77
2022/11/11 08:08:11;;;;;;;35.80;19.55;;;;;;;;;;5048818;28;20175;-77
2022/11/11 08:10:37;;;;;;;32.60;19.88;;;;;;;;;;5049775;28;20041;-78
2022/11/11 08:15:49;;;;;;;40.13;18.83;;;;;;;;;;5043736;28;20084;-78
2022/11/11 08:18:15;;;;;;;31.55;17.83;;;;;;;;;;5051714;28;20047;-78
2022/11/11 08:20:41;;;;;;;30.85;18.33;;;;;;;;;;5035156;28;20119;-78
2022/11/11 08:23:09;;;;;;;31.77;17.65;;;;;;;;;;5051992;28;20533;-78
2022/11/11 08:25:36;;;;;;;30.50;18.60;;;;;;;;;;5049241;28;20508;-78
2022/11/11 08:28:03;;;;;;;31.50;18.33;;;;;;;;;;5051450;28;20053;-78
2022/11/11 08:30:29;;;;;;;32.28;16.90;;;;;;;;;;5050806;28;20056;-78
2022/11/11 08:32:56;;;;;;;29.02;17.23;;;;;;;;;;5067561;28;20505;-75
2022/11/11 08:35:22;;;;;;;31.55;18.50;;;;;;;;;;5051103;28;20233;-75
2022/11/11 08:37:48;;;;;;;28.05;17.02;;;;;;;;;;5028640;28;20504;-75
2022/11/11 08:40:15;;;;;;;30.90;17.40;;;;;;;;;;5035212;28;20045;-75
2022/11/11 08:42:41;;;;;;;27.75;16.27;;;;;;;;;;5034456;28;20482;-75
2022/11/11 08:45:08;;;;;;;32.08;17.85;;;;;;;;;;5052075;28;20404;-75
2022/11/11 08:47:34;;;;;;;31.25;16.88;;;;;;;;;;5050455;28;20069;-75
2022/11/11 08:50:01;;;;;;;27.13;16.95;;;;;;;;;;5050613;28;20119;-75
2022/11/11 08:52:27;;;;;;;31.92;17.77;;;;;;;;;;5051150;28;20041;-75
2022/11/11 08:54:53;;;;;;;31.23;17.92;;;;;;;;;;5036637;28;20081;-75
2022/11/11 08:57:19;;;;;;;30.45;17.27;;;;;;;;;;5048067;28;20041;-75
2022/11/11 08:59:45;;;;;;;32.65;17.45;;;;;;;;;;5050803;28;20043;-76
2022/11/11 09:02:11;;;;;;;30.67;18.00;;;;;;;;;;5052247;28;20502;-74
2022/11/11 09:04:38;;;;;;;33.30;18.20;;;;;;;;;;5050976;28;20041;-75
2022/11/11 09:07:05;;;;;;;31.63;18.00;;;;;;;;;;5049383;28;20060;-75
2022/11/11 09:09:31;;;;;;;30.35;17.45;;;;;;;;;;5051054;28;20094;-76
2022/11/11 09:11:57;;;;;;;29.30;17.45;;;;;;;;;;5050404;28;20051;-75
2022/11/11 09:14:23;;;;;;;32.47;15.90;;;;;;;;;;5084740;28;20401;-76
2022/11/11 09:16:50;;;;;;;27.55;17.08;;;;;;;;;;5049637;28;20045;-76
2022/11/11 09:19:16;;;;;;;33.90;17.10;;;;;;;;;;5049329;28;20128;-76
2022/11/11 09:21:42;;;;;;;30.55;17.80;;;;;;;;;;5042900;28;20036;-76
2022/11/11 09:24:08;;;;;;;29.80;16.73;;;;;;;;;;5070576;28;20054;-76
2022/11/11 09:26:34;;;;;;;29.73;17.35;;;;;;;;;;5070414;28;20037;-76
2022/11/11 09:29:00;;;;;;;31.33;17.63;;;;;;;;;;5018683;28;20044;-76
2022/11/11 09:31:26;;;;;;;35.08;17.45;;;;;;;;;;5070600;28;20040;-76
2022/11/11 09:33:52;;;;;;;28.80;16.98;;;;;;;;;;5070555;28;20041;-74
2022/11/11 09:36:19;;;;;;;30.73;17.15;;;;;;;;;;5070809;28;20048;-74
2022/11/11 09:38:45;;;;;;;32.75;17.70;;;;;;;;;;5060757;28;20370;-73
2022/11/11 09:41:11;;;;;;;30.35;16.67;;;;;;;;;;5074079;28;20505;-73
2022/11/11 09:43:43;;;;;;;25.73;16.30;;;;;;;;;;5074719;28;20041;-73
2022/11/11 09:46:22;;;;;;;32.63;17.02;;;;;;;;;;5074655;28;20045;-73
2022/11/11 09:48:51;;;;;;;27.27;16.67;;;;;;;;;;5046816;28;20142;-74
2022/11/11 09:51:26;;;;;;;29.00;17.27;;;;;;;;;;5053975;28;20045;-73
2022/11/11 09:54:06;;;;;;;27.88;16.20;;;;;;;;;;5054559;28;20055;-74
2022/11/11 09:56:33;;;;;;;29.25;17.10;;;;;;;;;;5054621;28;20498;-74
2022/11/11 09:59:02;;;;;;;27.17;17.10;;;;;;;;;;5052974;28;20029;-78
2022/11/11 10:01:32;;;;;;;30.75;16.88;;;;;;;;;;5048552;28;20072;-75
2022/11/11 10:04:04;;;;;;;27.40;16.92;;;;;;;;;;5036277;28;20032;-74
2022/11/11 10:06:31;;;;;;;29.88;16.25;;;;;;;;;;5054206;28;20049;-74
2022/11/11 10:09:02;;;;;;;27.13;17.00;;;;;;;;;;5053230;28;20041;-73
2022/11/11 10:11:47;;;;;;;26.52;16.10;;;;;;;;;;5053515;28;20102;-74
2022/11/11 10:14:13;;;;;;;26.30;15.65;;;;;;;;;;5053094;28;20048;-74
2022/11/11 10:16:58;;;;;;;29.08;17.00;;;;;;;;;;5054162;28;20545;-74
2022/11/11 10:19:32;;;;;;;27.80;17.02;;;;;;;;;;5037169;28;20032;-74
2022/11/11 10:22:05;;;;;;;26.88;15.40;;;;;;;;;;5053604;28;20037;-80
2022/11/11 10:24:41;;;;;;;28.50;16.45;;;;;;;;;;5055185;28;20397;-79
2022/11/11 10:27:14;;;;;;;27.40;15.88;;;;;;;;;;5055466;28;20482;-79
2022/11/11 10:29:44;;;;;;;28.95;16.05;;;;;;;;;;5033621;28;20041;-74
2022/11/11 10:32:27;;;;;;;28.17;16.08;;;;;;;;;;5035744;28;20068;-76
2022/11/11 10:34:54;;;;;;;28.48;15.95;;;;;;;;;;5035154;28;20437;-74
2022/11/11 10:37:24;;;;;;;25.98;15.98;;;;;;;;;;5046789;28;20052;-75
2022/11/11 10:39:53;;;;;;;27.70;15.88;;;;;;;;;;5053490;28;20397;-75
2022/11/11 10:42:19;;;;;;;26.50;15.15;;;;;;;;;;5051401;28;20032;-75
2022/11/11 10:44:46;;;;;;;28.55;15.77;;;;;;;;;;5035763;28;20083;-75
2022/11/11 10:47:12;;;;;;;25.33;15.25;;;;;;;;;;5027011;28;20548;-74
2022/11/11 10:49:41;;;;;;;27.77;14.65;;;;;;;;;;5051389;28;20033;-74
2022/11/11 10:52:19;;;;;;;26.95;14.80;;;;;;;;;;5052246;28;20476;-75
2022/11/11 10:54:51;;;;;;;26.58;15.13;;;;;;;;;;5036899;28;20032;-75
2022/11/11 10:57:24;;;;;;;25.80;15.02;;;;;;;;;;5036812;28;20036;-75
2022/11/11 11:00:05;;;;;;;23.15;13.95;;;;;;;;;;5052944;28;20433;-75
2022/11/11 11:02:40;;;;;;;25.30;14.38;;;;;;;;;;5046102;28;20045;-74
2022/11/11 11:05:06;;;;;;;18.65;12.15;;;;;;;;;;5052855;28;20405;-74
2022/11/11 11:07:43;;;;;;;24.70;13.50;;;;;;;;;;5052411;28;20110;-75
2022/11/11 11:10:15;;;;;;;25.83;13.20;;;;;;;;;;5084174;28;20497;-76
2022/11/11 11:12:50;;;;;;;22.05;13.27;;;;;;;;;;5052416;28;20048;-85
2022/11/11 11:15:18;;;;;;;22.63;13.30;;;;;;;;;;5052402;28;20045;-85
2022/11/11 11:17:53;;;;;;;21.77;13.52;;;;;;;;;;5039007;28;20036;-86
2022/11/11 11:20:20;;;;;;;24.65;13.63;;;;;;;;;;5050551;28;20041;-74
2022/11/11 11:22:55;;;;;;;22.02;13.50;;;;;;;;;;5035768;28;20041;-75
2022/11/11 11:25:21;;;;;;;23.52;13.25;;;;;;;;;;5053066;28;20049;-86
2022/11/11 11:27:50;;;;;;;22.15;13.25;;;;;;;;;;5050889;28;20432;-85
2022/11/11 11:30:16;;;;;;;21.10;12.93;;;;;;;;;;5053171;28;20049;-84
2022/11/11 11:32:54;;;;;;;21.00;13.10;;;;;;;;;;5036448;28;20272;-78
2022/11/11 11:35:35;;;;;;;21.80;12.57;;;;;;;;;;5068063;28;20489;-74
2022/11/11 11:38:01;;;;;;;21.92;12.85;;;;;;;;;;5034221;28;20032;-75
2022/11/11 11:40:29;;;;;;;24.42;13.27;;;;;;;;;;5052840;28;20099;-74
2022/11/11 11:42:55;;;;;;;21.55;13.07;;;;;;;;;;5034860;28;20057;-72
2022/11/11 11:45:23;;;;;;;21.33;13.40;;;;;;;;;;5051606;28;20041;-74
2022/11/11 11:48:08;;;;;;;22.20;12.90;;;;;;;;;;5052562;28;20041;-84
2022/11/11 11:50:34;;;;;;;22.38;13.02;;;;;;;;;;5050580;28;20405;-81
2022/11/11 11:53:19;;;;;;;20.73;12.15;;;;;;;;;;5051674;28;20041;-81
2022/11/11 11:56:02;;;;;;;20.77;12.93;;;;;;;;;;5052391;28;20238;-80
2022/11/11 11:58:47;;;;;;;20.00;12.82;;;;;;;;;;5066083;28;20517;-79
2022/11/11 12:01:18;;;;;;;21.48;12.93;;;;;;;;;;5051306;28;20051;-75
2022/11/11 12:03:50;;;;;;;23.83;13.23;;;;;;;;;;5051451;28;20040;-82
2022/11/11 12:06:19;;;;;;;24.90;13.20;;;;;;;;;;5033840;28;20045;-81
2022/11/11 12:08:45;;;;;;;22.88;13.73;;;;;;;;;;5051840;28;20052;-84
2022/11/11 12:11:28;;;;;;;21.52;13.00;;;;;;;;;;5051746;28;20490;-80
2022/11/11 12:14:00;;;;;;;23.75;13.57;;;;;;;;;;5054368;28;20101;-82
2022/11/11 12:16:45;;;;;;;23.00;12.63;;;;;;;;;;5057802;28;20432;-82
2022/11/11 12:19:31;;;;;;;19.23;11.80;;;;;;;;;;5052509;28;20083;-81
2022/11/11 12:21:58;;;;;;;21.80;12.90;;;;;;;;;;5051518;28;20045;-82
2022/11/11 12:24:36;;;;;;;21.75;12.88;;;;;;;;;;5051452;28;20049;-78
2022/11/11 12:27:11;;;;;;;22.48;12.65;;;;;;;;;;5051256;28;20486;-79
2022/11/11 12:29:48;;;;;;;20.38;12.98;;;;;;;;;;5051370;28;20135;-78
2022/11/11 12:32:17;;;;;;;21.13;13.15;;;;;;;;;;5051151;28;20126;-79
2022/11/11 12:34:56;;;;;;;19.40;12.52;;;;;;;;;;5050943;28;20136;-80
2022/11/11 12:37:29;;;;;;;21.85;12.40;;;;;;;;;;5051197;28;20119;-80
2022/11/11 12:39:55;;;;;;;23.17;12.48;;;;;;;;;;5050776;28;20494;-80
2022/11/11 12:42:24;;;;;;;22.50;13.00;;;;;;;;;;5050708;28;20033;-80
2022/11/11 12:45:13;;;;;;;21.98;12.80;;;;;;;;;;5034475;28;20041;-80
2022/11/11 12:47:52;;;;;;;23.27;12.95;;;;;;;;;;5016184;28;20049;-81
2022/11/11 12:50:30;;;;;;;21.52;13.15;;;;;;;;;;5067870;28;20079;-81
2022/11/11 12:53:02;;;;;;;22.50;13.82;;;;;;;;;;5033263;28;20037;-74
2022/11/11 12:55:47;;;;;;;21.30;12.43;;;;;;;;;;5052075;28;20059;-75
2022/11/11 12:58:13;;;;;;;21.52;12.63;;;;;;;;;;5052314;28;20045;-75
2022/11/11 13:00:58;;;;;;;22.88;13.20;;;;;;;;;;5034024;28;20036;-75
2022/11/11 13:03:43;;;;;;;22.58;12.70;;;;;;;;;;5049297;28;20043;-81
2022/11/11 13:06:21;;;;;;;20.85;13.07;;;;;;;;;;5029433;28;20077;-80
2022/11/11 13:08:47;;;;;;;22.50;12.38;;;;;;;;;;5051458;28;20409;-82
2022/11/11 13:11:16;;;;;;;21.00;12.60;;;;;;;;;;5065094;28;20045;-81
2022/11/11 13:13:48;;;;;;;18.83;12.45;;;;;;;;;;5051224;28;20067;-81
2022/11/11 13:16:15;;;;;;;22.65;13.13;;;;;;;;;;5051120;28;20052;-81
2022/11/11 13:18:44;;;;;;;21.15;13.00;;;;;;;;;;5047242;28;20048;-76
2022/11/11 13:21:13;;;;;;;19.63;12.88;;;;;;;;;;5030432;28;20128;-76
2022/11/11 13:23:39;;;;;;;20.15;12.68;;;;;;;;;;5035564;28;20036;-75
2022/11/11 13:26:12;;;;;;;20.27;12.00;;;;;;;;;;5063938;28;20040;-76
2022/11/11 13:28:43;;;;;;;19.92;13.63;;;;;;;;;;5054718;28;20059;-76
2022/11/11 13:31:23;;;;;;;22.02;12.68;;;;;;;;;;5055571;28;20132;-76
2022/11/11 13:33:52;;;;;;;18.65;12.07;;;;;;;;;;5051330;28;20090;-76
2022/11/11 13:36:19;;;;;;;20.17;12.32;;;;;;;;;;5050639;28;20396;-76
2022/11/11 13:38:45;;;;;;;23.55;12.60;;;;;;;;;;5050285;28;20037;-76
2022/11/11 13:41:12;;;;;;;21.65;13.32;;;;;;;;;;5053882;28;20477;-76
2022/11/11 13:43:43;;;;;;;18.98;12.75;;;;;;;;;;5059448;28;20037;-73
2022/11/11 13:46:24;;;;;;;19.67;13.23;;;;;;;;;;5033101;28;20044;-74
2022/11/11 13:48:51;;;;;;;23.15;13.10;;;;;;;;;;5046761;28;20040;-74
2022/11/11 13:51:20;;;;;;;21.40;12.93;;;;;;;;;;5034100;28;20529;-74
2022/11/11 13:53:47;;;;;;;19.40;12.35;;;;;;;;;;5050029;28;20505;-73
2022/11/11 13:56:21;;;;;;;20.25;12.73;;;;;;;;;;5050608;28;20063;-74
2022/11/11 13:58:48;;;;;;;23.38;12.90;;;;;;;;;;5051942;28;20495;-73
2022/11/11 14:01:15;;;;;;;20.88;12.77;;;;;;;;;;5049876;28;20041;-73
2022/11/11 14:03:44;;;;;;;20.67;12.98;;;;;;;;;;5046044;28;20041;-76
2022/11/11 14:06:14;;;;;;;20.33;13.13;;;;;;;;;;5050666;28;20044;-91
2022/11/11 14:08:46;;;;;;;23.83;12.95;;;;;;;;;;5034122;28;20502;-86
2022/11/11 14:11:24;;;;;;;20.55;12.95;;;;;;;;;;5050907;28;20095;-82
2022/11/11 14:13:51;;;;;;;23.40;12.18;;;;;;;;;;5032179;28;20044;-76
2022/11/11 14:16:35;;;;;;;19.70;13.07;;;;;;;;;;5050228;28;20037;-78
2022/11/11 14:19:20;;;;;;;21.23;12.30;;;;;;;;;;5050070;28;20033;-73
2022/11/11 14:21:50;;;;;;;22.02;12.20;;;;;;;;;;5049897;28;20036;-74
2022/11/11 14:24:36;;;;;;;18.63;11.43;;;;;;;;;;5051253;28;20080;-72
2022/11/11 14:27:08;;;;;;;21.90;13.23;;;;;;;;;;5050309;28;20120;-79
2022/11/11 14:29:37;;;;;;;20.25;12.38;;;;;;;;;;5052092;28;20582;-73
2022/11/11 14:32:22;;;;;;;21.15;12.43;;;;;;;;;;5053994;28;20051;-72
2022/11/11 14:34:51;;;;;;;20.27;12.30;;;;;;;;;;5043499;28;20063;-77
2022/11/11 14:37:17;;;;;;;22.85;12.60;;;;;;;;;;5032619;28;20069;-76
2022/11/11 14:39:49;;;;;;;20.88;12.88;;;;;;;;;;5054717;28;20483;-76
2022/11/11 14:42:34;;;;;;;21.45;13.07;;;;;;;;;;5053538;28;20041;-76
2022/11/11 14:45:01;;;;;;;20.27;12.57;;;;;;;;;;5044875;28;20048;-77
2022/11/11 14:47:30;;;;;;;20.33;12.68;;;;;;;;;;5051829;28;20098;-72
2022/11/11 14:49:58;;;;;;;22.67;12.82;;;;;;;;;;5053244;28;20048;-74
2022/11/11 14:52:44;;;;;;;23.02;13.38;;;;;;;;;;5051445;28;20049;-74
2022/11/11 14:55:19;;;;;;;21.15;13.02;;;;;;;;;;5043881;28;20513;-74
2022/11/11 14:57:49;;;;;;;24.05;13.23;;;;;;;;;;5022730;28;20103;-73
2022/11/11 15:00:20;;;;;;;21.55;12.68;;;;;;;;;;5049195;28;20033;-74
2022/11/11 15:02:46;;;;;;;23.80;13.65;;;;;;;;;;5052750;28;20146;-75
2022/11/11 15:05:15;;;;;;;20.77;11.88;;;;;;;;;;5064637;28;20070;-84
2022/11/11 15:07:41;;;;;;;24.08;13.07;;;;;;;;;;5039386;28;20070;-84
2022/11/11 15:10:13;;;;;;;23.92;13.55;;;;;;;;;;5048949;28;20047;-76
2022/11/11 15:12:47;;;;;;;25.55;14.07;;;;;;;;;;5065047;28;20107;-81
2022/11/11 15:15:33;;;;;;;21.85;13.68;;;;;;;;;;5040020;28;20088;-81
2022/11/11 15:18:06;;;;;;;21.30;13.93;;;;;;;;;;5029402;28;20129;-72
2022/11/11 15:20:32;;;;;;;23.45;13.60;;;;;;;;;;5034590;28;20371;-72
2022/11/11 15:22:58;;;;;;;27.52;15.00;;;;;;;;;;5085178;28;20044;-72
2022/11/11 15:25:29;;;;;;;24.92;13.70;;;;;;;;;;5052446;28;20124;-72
2022/11/11 15:27:59;;;;;;;27.58;14.05;;;;;;;;;;5045752;28;20140;-72
2022/11/11 15:30:39;;;;;;;26.10;14.88;;;;;;;;;;5032113;28;20044;-72
2022/11/11 15:33:12;;;;;;;23.10;13.85;;;;;;;;;;5049800;28;20037;-81
2022/11/11 15:35:46;;;;;;;25.55;14.13;;;;;;;;;;5035749;28;20478;-80
2022/11/11 15:38:14;;;;;;;27.38;15.00;;;;;;;;;;5055052;28;20040;-80
2022/11/11 15:40:47;;;;;;;25.55;14.52;;;;;;;;;;5055201;28;20041;-80
2022/11/11 15:43:16;;;;;;;31.05;17.33;;;;;;;;;;5052662;28;20029;-80
2022/11/11 15:45:43;;;;;;;25.33;14.88;;;;;;;;;;5053035;28;20045;-80
2022/11/11 15:48:35;;;;;;;26.92;14.68;;;;;;;;;;5054067;28;20045;-81